Time;durP1;ratioP1;P1;durP2;ratioP2;P2;SDS_P1;SDS_P2;PMS_P1;PMS_P2;Temp;Humidity;BMP_temperature;BMP_pressure;BME280_temperature;BME280_humidity;BME280_pressure;Samples;Min_cycle;Max_cycle;Signal;HPM_P1;HPM_P2
2022/09/03 00:01:36;;;;;;;3.60;1.95;;;;;;;;;;5021754;27;20050;-69
2022/09/03 00:04:10;;;;;;;4.35;2.10;;;;;;;;;;5111894;27;20043;-70
2022/09/03 00:06:40;;;;;;;2.20;2.00;;;;;;;;;;5109788;27;20051;-69
2022/09/03 00:09:12;;;;;;;6.95;2.00;;;;;;;;;;5109113;27;20036;-69
2022/09/03 00:11:50;;;;;;;4.07;2.60;;;;;;;;;;5104484;27;20056;-68
2022/09/03 00:14:23;;;;;;;6.85;2.05;;;;;;;;;;5109629;27;20047;-69
2022/09/03 00:16:55;;;;;;;5.40;2.30;;;;;;;;;;5109864;27;20499;-68
2022/09/03 00:19:30;;;;;;;7.13;2.40;;;;;;;;;;5109032;28;20052;-68
2022/09/03 00:22:05;;;;;;;2.47;2.22;;;;;;;;;;5109677;28;20051;-68
2022/09/03 00:24:35;;;;;;;4.00;2.40;;;;;;;;;;5108553;27;20050;-68
2022/09/03 00:27:05;;;;;;;3.33;2.10;;;;;;;;;;5112702;27;20039;-68
2022/09/03 00:29:43;;;;;;;3.35;2.00;;;;;;;;;;5113194;27;20055;-69
2022/09/03 00:32:28;;;;;;;3.58;2.25;;;;;;;;;;5113145;28;20052;-68
2022/09/03 00:34:59;;;;;;;2.70;2.50;;;;;;;;;;5112180;28;20561;-68
2022/09/03 00:37:27;;;;;;;3.83;2.33;;;;;;;;;;5112576;27;20047;-68
2022/09/03 00:39:54;;;;;;;3.00;2.13;;;;;;;;;;5112845;27;20047;-67
2022/09/03 00:42:42;;;;;;;4.82;2.00;;;;;;;;;;5112884;27;20063;-68
2022/09/03 00:45:43;;;;;;;3.63;2.17;;;;;;;;;;5111512;27;20491;-68
2022/09/03 00:48:22;;;;;;;2.85;2.22;;;;;;;;;;5112790;27;20075;-69
2022/09/03 00:51:11;;;;;;;2.40;2.20;;;;;;;;;;5112437;27;20116;-68
2022/09/03 00:53:41;;;;;;;2.55;2.15;;;;;;;;;;5076112;28;20052;-68
2022/09/03 00:56:20;;;;;;;2.95;2.20;;;;;;;;;;5111943;27;20059;-68
2022/09/03 00:59:14;;;;;;;3.00;2.33;;;;;;;;;;5112721;27;20036;-67
2022/09/03 01:01:54;;;;;;;2.67;2.30;;;;;;;;;;5104191;28;20048;-69
2022/09/03 01:04:38;;;;;;;3.10;2.70;;;;;;;;;;5103439;27;20054;-69
2022/09/03 01:07:24;;;;;;;4.07;2.60;;;;;;;;;;5111028;27;20459;-68
2022/09/03 01:10:15;;;;;;;4.43;2.42;;;;;;;;;;5100675;28;20102;-68
2022/09/03 01:13:02;;;;;;;3.25;2.28;;;;;;;;;;5112492;27;20056;-67
2022/09/03 01:15:53;;;;;;;2.80;2.53;;;;;;;;;;5111812;27;20046;-68
2022/09/03 01:18:47;;;;;;;3.70;2.50;;;;;;;;;;5111342;27;20040;-68
2022/09/03 01:21:37;;;;;;;2.60;2.40;;;;;;;;;;5085108;28;20044;-68
2022/09/03 01:24:06;;;;;;;3.72;2.67;;;;;;;;;;5097045;27;20055;-68
2022/09/03 01:26:50;;;;;;;4.28;2.33;;;;;;;;;;5111923;27;20117;-68
2022/09/03 01:29:21;;;;;;;8.43;3.00;;;;;;;;;;5110568;27;20044;-68
2022/09/03 01:31:52;;;;;;;7.75;2.90;;;;;;;;;;5111641;28;20127;-68
2022/09/03 01:34:21;;;;;;;5.22;2.78;;;;;;;;;;5112079;27;20058;-68
2022/09/03 01:36:46;;;;;;;4.75;2.70;;;;;;;;;;5111933;28;20036;-68
2022/09/03 01:39:32;;;;;;;5.15;2.58;;;;;;;;;;5110491;27;20048;-68
2022/09/03 01:42:17;;;;;;;4.68;2.45;;;;;;;;;;5109999;28;20043;-68
2022/09/03 01:45:13;;;;;;;4.47;2.20;;;;;;;;;;5111705;27;20040;-67
2022/09/03 01:47:50;;;;;;;3.70;2.40;;;;;;;;;;5089369;28;20653;-65
2022/09/03 01:50:34;;;;;;;5.43;2.40;;;;;;;;;;5090094;28;20048;-65
2022/09/03 01:53:24;;;;;;;6.38;2.53;;;;;;;;;;5100657;28;20050;-65
2022/09/03 01:55:56;;;;;;;4.28;2.80;;;;;;;;;;5109367;28;20051;-68
2022/09/03 01:58:31;;;;;;;2.83;2.38;;;;;;;;;;5111517;27;20439;-67
2022/09/03 02:01:02;;;;;;;3.70;3.10;;;;;;;;;;5110340;27;20058;-67
2022/09/03 02:03:37;;;;;;;2.80;2.50;;;;;;;;;;5110848;27;20043;-67
2022/09/03 02:06:05;;;;;;;4.18;2.50;;;;;;;;;;5110027;28;20082;-67
2022/09/03 02:08:31;;;;;;;3.67;2.47;;;;;;;;;;5111438;27;20551;-66
2022/09/03 02:11:00;;;;;;;2.65;2.45;;;;;;;;;;5111043;27;20526;-65
2022/09/03 02:13:34;;;;;;;3.40;2.58;;;;;;;;;;5108625;28;20081;-66
2022/09/03 02:16:10;;;;;;;2.83;2.55;;;;;;;;;;5110937;27;20419;-66
2022/09/03 02:18:40;;;;;;;4.35;2.70;;;;;;;;;;5097796;28;20044;-66
2022/09/03 02:21:06;;;;;;;10.73;2.70;;;;;;;;;;5106662;28;20142;-67
2022/09/03 02:23:32;;;;;;;3.03;2.70;;;;;;;;;;5089799;28;20127;-67
2022/09/03 02:26:00;;;;;;;3.63;2.50;;;;;;;;;;5090340;27;20044;-68
2022/09/03 02:28:27;;;;;;;4.90;2.55;;;;;;;;;;5102527;27;20121;-67
2022/09/03 02:30:53;;;;;;;2.70;2.50;;;;;;;;;;5110465;27;20520;-66
2022/09/03 02:33:18;;;;;;;3.78;2.88;;;;;;;;;;5109681;28;20590;-66
2022/09/03 02:35:45;;;;;;;5.28;3.25;;;;;;;;;;5110726;27;20123;-65
2022/09/03 02:38:15;;;;;;;3.30;3.00;;;;;;;;;;5110544;27;20514;-66
2022/09/03 02:40:41;;;;;;;4.22;3.20;;;;;;;;;;5110538;27;20491;-66
2022/09/03 02:43:14;;;;;;;3.20;2.72;;;;;;;;;;5113955;27;20061;-68
2022/09/03 02:45:45;;;;;;;3.67;3.03;;;;;;;;;;5116048;28;20050;-66
2022/09/03 02:48:15;;;;;;;4.43;2.90;;;;;;;;;;5119755;27;20071;-67
2022/09/03 02:50:41;;;;;;;3.15;2.30;;;;;;;;;;5113132;27;20035;-67
2022/09/03 02:53:07;;;;;;;3.60;2.90;;;;;;;;;;5110172;27;20047;-67
2022/09/03 02:55:33;;;;;;;5.20;2.88;;;;;;;;;;5109844;27;20516;-66
2022/09/03 02:57:59;;;;;;;5.32;2.80;;;;;;;;;;5110083;27;20105;-68
2022/09/03 03:00:25;;;;;;;4.55;2.95;;;;;;;;;;5110101;27;20043;-69
2022/09/03 03:02:51;;;;;;;2.92;2.72;;;;;;;;;;5109733;28;20507;-68
2022/09/03 03:05:25;;;;;;;3.33;3.10;;;;;;;;;;5109675;28;20048;-69
2022/09/03 03:07:50;;;;;;;8.10;3.03;;;;;;;;;;5109608;27;20113;-68
2022/09/03 03:10:16;;;;;;;3.38;3.08;;;;;;;;;;5109119;27;20052;-68
2022/09/03 03:12:41;;;;;;;4.90;2.72;;;;;;;;;;5109088;27;20067;-68
2022/09/03 03:15:07;;;;;;;4.78;2.92;;;;;;;;;;5109540;27;20047;-68
2022/09/03 03:17:33;;;;;;;5.68;3.15;;;;;;;;;;5109283;28;20043;-68
2022/09/03 03:19:58;;;;;;;5.47;2.95;;;;;;;;;;5109594;27;20104;-67
2022/09/03 03:22:23;;;;;;;4.97;3.20;;;;;;;;;;5097679;28;20377;-68
2022/09/03 03:24:49;;;;;;;11.18;3.58;;;;;;;;;;5099137;27;20036;-68
2022/09/03 03:27:15;;;;;;;3.53;3.15;;;;;;;;;;5109336;27;20035;-67
2022/09/03 03:29:40;;;;;;;5.70;3.53;;;;;;;;;;5100530;27;20135;-68
2022/09/03 03:32:06;;;;;;;4.45;3.10;;;;;;;;;;5106676;27;20086;-68
2022/09/03 03:34:31;;;;;;;3.78;3.17;;;;;;;;;;5109649;27;20048;-68
2022/09/03 03:36:56;;;;;;;6.82;3.47;;;;;;;;;;5110182;27;20032;-68
2022/09/03 03:39:22;;;;;;;3.83;3.15;;;;;;;;;;5108342;27;20048;-67
2022/09/03 03:41:47;;;;;;;7.82;3.47;;;;;;;;;;5109668;27;20044;-68
2022/09/03 03:44:14;;;;;;;3.90;3.38;;;;;;;;;;5109372;27;20166;-68
2022/09/03 03:46:40;;;;;;;3.88;3.55;;;;;;;;;;5109772;27;20067;-68
2022/09/03 03:49:07;;;;;;;4.35;3.40;;;;;;;;;;5109548;28;20061;-68
2022/09/03 03:51:37;;;;;;;4.03;3.33;;;;;;;;;;5108705;27;20126;-67
2022/09/03 03:54:02;;;;;;;6.63;3.78;;;;;;;;;;5109819;27;20040;-68
2022/09/03 03:56:28;;;;;;;4.80;3.35;;;;;;;;;;5109773;27;20552;-68
2022/09/03 03:58:54;;;;;;;6.45;3.65;;;;;;;;;;5109908;27;20043;-68
2022/09/03 04:01:22;;;;;;;3.90;3.47;;;;;;;;;;5110720;27;20059;-68
2022/09/03 04:03:47;;;;;;;4.20;3.28;;;;;;;;;;5113501;27;20040;-69
2022/09/03 04:06:15;;;;;;;3.88;3.55;;;;;;;;;;5113560;27;20621;-68
2022/09/03 04:08:42;;;;;;;3.90;3.50;;;;;;;;;;5113651;27;20048;-68
2022/09/03 04:11:11;;;;;;;7.10;3.33;;;;;;;;;;5112821;27;20509;-68
2022/09/03 04:13:38;;;;;;;3.47;3.17;;;;;;;;;;5112543;27;20047;-68
2022/09/03 04:16:13;;;;;;;3.83;3.50;;;;;;;;;;5113099;27;20134;-69
2022/09/03 04:18:39;;;;;;;7.10;3.30;;;;;;;;;;5113545;28;20467;-69
2022/09/03 04:21:07;;;;;;;4.82;3.60;;;;;;;;;;5112466;28;20515;-68
2022/09/03 04:23:35;;;;;;;6.82;4.15;;;;;;;;;;5112778;28;20043;-68
2022/09/03 04:26:01;;;;;;;6.85;3.70;;;;;;;;;;5112915;27;20055;-68
2022/09/03 04:28:27;;;;;;;4.40;3.20;;;;;;;;;;5113422;27;20240;-68
2022/09/03 04:30:53;;;;;;;6.68;3.67;;;;;;;;;;5112936;27;20039;-68
2022/09/03 04:33:18;;;;;;;5.10;3.92;;;;;;;;;;5112729;28;20422;-68
2022/09/03 04:35:44;;;;;;;4.43;3.60;;;;;;;;;;5112312;27;20043;-69
2022/09/03 04:38:10;;;;;;;4.45;3.58;;;;;;;;;;5112773;27;20047;-69
2022/09/03 04:40:36;;;;;;;3.78;3.42;;;;;;;;;;5112809;27;20044;-68
2022/09/03 04:43:02;;;;;;;3.97;3.40;;;;;;;;;;5112475;27;20050;-73
2022/09/03 04:45:28;;;;;;;4.00;3.53;;;;;;;;;;5112070;27;20065;-69
2022/09/03 04:47:57;;;;;;;4.13;3.58;;;;;;;;;;5112658;27;20055;-68
2022/09/03 04:50:22;;;;;;;4.35;3.50;;;;;;;;;;5111714;27;20055;-69
2022/09/03 04:53:02;;;;;;;3.97;3.50;;;;;;;;;;5101179;27;20093;-67
2022/09/03 04:55:33;;;;;;;7.20;3.85;;;;;;;;;;5100102;28;20073;-68
2022/09/03 04:57:58;;;;;;;5.53;3.70;;;;;;;;;;5102386;27;20102;-67
2022/09/03 05:00:24;;;;;;;5.00;3.47;;;;;;;;;;5102818;27;20531;-65
2022/09/03 05:02:50;;;;;;;5.05;3.88;;;;;;;;;;5101195;27;20051;-66
2022/09/03 05:05:17;;;;;;;6.20;3.42;;;;;;;;;;5101262;27;20066;-67
2022/09/03 05:07:43;;;;;;;4.88;3.33;;;;;;;;;;5100384;27;20404;-68
2022/09/03 05:10:20;;;;;;;3.63;3.33;;;;;;;;;;5105955;27;20048;-67
2022/09/03 05:12:47;;;;;;;10.13;4.45;;;;;;;;;;5101361;28;20496;-66
2022/09/03 05:15:13;;;;;;;9.25;3.92;;;;;;;;;;5101784;28;20039;-66
2022/09/03 05:17:38;;;;;;;6.78;3.47;;;;;;;;;;5102993;28;20054;-67
2022/09/03 05:20:06;;;;;;;6.80;3.50;;;;;;;;;;5102824;27;20040;-67
2022/09/03 05:22:33;;;;;;;4.50;3.60;;;;;;;;;;5103356;27;20496;-67
2022/09/03 05:24:58;;;;;;;3.50;3.20;;;;;;;;;;5100326;27;20500;-67
2022/09/03 05:27:24;;;;;;;5.80;3.15;;;;;;;;;;5101508;27;20077;-67
2022/09/03 05:29:49;;;;;;;3.47;3.17;;;;;;;;;;5101582;27;20059;-68
2022/09/03 05:32:16;;;;;;;6.00;3.05;;;;;;;;;;5105435;27;20047;-67
2022/09/03 05:34:42;;;;;;;6.13;3.15;;;;;;;;;;5099823;28;20507;-68
2022/09/03 05:37:09;;;;;;;4.78;2.75;;;;;;;;;;5096393;27;20109;-68
2022/09/03 05:39:34;;;;;;;5.13;2.55;;;;;;;;;;5091356;28;20059;-68
2022/09/03 05:41:59;;;;;;;3.05;2.60;;;;;;;;;;5106297;27;20048;-69
2022/09/03 05:44:25;;;;;;;3.30;2.63;;;;;;;;;;5111663;27;20039;-68
2022/09/03 05:46:50;;;;;;;4.03;2.88;;;;;;;;;;5111742;27;20040;-69
2022/09/03 05:49:16;;;;;;;5.47;2.67;;;;;;;;;;5111061;28;20502;-67
2022/09/03 05:51:42;;;;;;;3.30;2.33;;;;;;;;;;5110506;28;20043;-67
2022/09/03 05:54:09;;;;;;;6.65;2.95;;;;;;;;;;5111387;27;20047;-68
2022/09/03 05:56:36;;;;;;;5.70;2.63;;;;;;;;;;5111580;27;20055;-68
2022/09/03 05:59:05;;;;;;;2.95;2.65;;;;;;;;;;5100526;27;20036;-69
2022/09/03 06:01:35;;;;;;;3.88;2.40;;;;;;;;;;5100627;27;20047;-69
2022/09/03 06:04:10;;;;;;;8.82;2.63;;;;;;;;;;5104972;27;20058;-67
2022/09/03 06:06:38;;;;;;;2.72;2.50;;;;;;;;;;5107152;28;20044;-68
2022/09/03 06:09:13;;;;;;;5.50;2.85;;;;;;;;;;5102851;27;20200;-70
2022/09/03 06:11:39;;;;;;;3.10;2.80;;;;;;;;;;5082008;28;20123;-68
2022/09/03 06:14:08;;;;;;;3.40;2.70;;;;;;;;;;5108144;27;20051;-68
2022/09/03 06:16:39;;;;;;;3.47;2.40;;;;;;;;;;5119146;27;20050;-68
2022/09/03 06:19:07;;;;;;;3.27;2.40;;;;;;;;;;5116035;27;20055;-69
2022/09/03 06:21:33;;;;;;;3.85;2.75;;;;;;;;;;5106962;27;20104;-68
2022/09/03 06:23:58;;;;;;;4.40;2.50;;;;;;;;;;5094569;28;20056;-69
2022/09/03 06:26:24;;;;;;;7.50;2.53;;;;;;;;;;5104240;27;20045;-68
2022/09/03 06:28:53;;;;;;;4.28;2.30;;;;;;;;;;5098051;27;20081;-69
2022/09/03 06:31:20;;;;;;;5.20;2.65;;;;;;;;;;5095825;27;20606;-70
2022/09/03 06:33:48;;;;;;;2.53;2.33;;;;;;;;;;5097226;27;20492;-69
2022/09/03 06:36:18;;;;;;;3.72;2.47;;;;;;;;;;5100920;27;20040;-70
2022/09/03 06:38:45;;;;;;;3.45;2.30;;;;;;;;;;5099911;27;20055;-69
2022/09/03 06:41:20;;;;;;;4.50;2.55;;;;;;;;;;5097803;27;20152;-69
2022/09/03 06:43:46;;;;;;;4.28;2.35;;;;;;;;;;5098486;27;20075;-69
2022/09/03 06:46:18;;;;;;;3.80;2.33;;;;;;;;;;5098013;27;20119;-69
2022/09/03 06:48:44;;;;;;;3.70;2.35;;;;;;;;;;5102870;27;20044;-69
2022/09/03 06:51:13;;;;;;;3.50;2.30;;;;;;;;;;5097005;27;20047;-68
2022/09/03 06:53:43;;;;;;;3.10;2.30;;;;;;;;;;5076296;28;20036;-69
2022/09/03 06:56:11;;;;;;;2.50;2.30;;;;;;;;;;5078623;27;20048;-69
2022/09/03 06:58:42;;;;;;;3.20;2.47;;;;;;;;;;5091296;27;20047;-69
2022/09/03 07:01:14;;;;;;;2.93;2.60;;;;;;;;;;5099355;27;20130;-69
2022/09/03 07:03:40;;;;;;;;;;;;;;;;;;5095376;28;20519;-69
2022/09/03 07:06:09;;;;;;;2.70;2.50;;;;;;;;;;5097382;27;19994;-69
2022/09/03 07:08:35;;;;;;;3.80;2.22;;;;;;;;;;5097215;27;20177;-69
2022/09/03 07:11:04;;;;;;;2.42;2.25;;;;;;;;;;5099485;27;20048;-69
2022/09/03 07:13:32;;;;;;;2.45;2.25;;;;;;;;;;5097532;27;20147;-69
2022/09/03 07:16:02;;;;;;;2.55;2.35;;;;;;;;;;5105260;27;20111;-69
2022/09/03 07:18:30;;;;;;;2.50;2.20;;;;;;;;;;5106707;28;20044;-69
2022/09/03 07:21:03;;;;;;;4.65;2.33;;;;;;;;;;5107278;28;20051;-69
2022/09/03 07:23:29;;;;;;;2.85;2.20;;;;;;;;;;5106804;27;20059;-69
2022/09/03 07:25:56;;;;;;;4.28;2.40;;;;;;;;;;5108121;27;20168;-69
2022/09/03 07:28:23;;;;;;;2.03;1.92;;;;;;;;;;5107354;27;20496;-69
2022/09/03 07:30:53;;;;;;;2.90;2.00;;;;;;;;;;5107374;27;20038;-69
2022/09/03 07:33:19;;;;;;;4.13;1.98;;;;;;;;;;5098046;27;20062;-69
2022/09/03 07:35:45;;;;;;;2.88;2.30;;;;;;;;;;5111953;27;20043;-69
2022/09/03 07:38:12;;;;;;;2.55;2.35;;;;;;;;;;5112269;27;20039;-70
2022/09/03 07:40:38;;;;;;;4.40;1.95;;;;;;;;;;5106203;27;20415;-69
2022/09/03 07:43:04;;;;;;;7.30;2.45;;;;;;;;;;5112084;27;20051;-69
2022/09/03 07:45:32;;;;;;;3.30;1.77;;;;;;;;;;5111905;27;20126;-70
2022/09/03 07:47:57;;;;;;;2.88;2.08;;;;;;;;;;5112848;28;20048;-70
2022/09/03 07:50:23;;;;;;;4.55;2.08;;;;;;;;;;5111253;28;20058;-69
2022/09/03 07:52:54;;;;;;;4.25;2.17;;;;;;;;;;5112286;28;20048;-69
2022/09/03 07:55:19;;;;;;;3.40;2.38;;;;;;;;;;5104061;27;20044;-68
2022/09/03 07:57:45;;;;;;;2.55;1.98;;;;;;;;;;5112841;27;20518;-69
2022/09/03 08:00:12;;;;;;;3.03;2.03;;;;;;;;;;5112642;27;20063;-68
2022/09/03 08:02:37;;;;;;;2.90;2.00;;;;;;;;;;5097364;27;20507;-69
2022/09/03 08:05:03;;;;;;;3.15;2.00;;;;;;;;;;5091045;27;20036;-74
2022/09/03 08:07:29;;;;;;;4.13;1.98;;;;;;;;;;5107894;27;20075;-68
2022/09/03 08:09:55;;;;;;;2.30;2.05;;;;;;;;;;5120615;28;20055;-69
2022/09/03 08:12:22;;;;;;;2.70;2.05;;;;;;;;;;5121038;27;20460;-69
2022/09/03 08:14:48;;;;;;;3.15;1.90;;;;;;;;;;5101691;28;20044;-69
2022/09/03 08:17:13;;;;;;;6.07;1.90;;;;;;;;;;5106182;27;20039;-69
2022/09/03 08:19:40;;;;;;;2.42;2.03;;;;;;;;;;5107978;28;20467;-69
2022/09/03 08:22:06;;;;;;;2.88;1.92;;;;;;;;;;5105986;28;20498;-69
2022/09/03 08:24:33;;;;;;;3.15;1.90;;;;;;;;;;5105152;27;20126;-69
2022/09/03 08:26:59;;;;;;;2.97;1.98;;;;;;;;;;5107086;27;20047;-68
2022/09/03 08:29:25;;;;;;;2.45;2.25;;;;;;;;;;5104651;27;20092;-68
2022/09/03 08:31:51;;;;;;;2.85;2.10;;;;;;;;;;5107919;28;20514;-68
2022/09/03 08:34:17;;;;;;;4.47;2.22;;;;;;;;;;5107432;27;20039;-68
2022/09/03 08:36:45;;;;;;;2.53;2.33;;;;;;;;;;5107285;28;20031;-68
2022/09/03 08:39:12;;;;;;;2.47;1.75;;;;;;;;;;5096476;28;20027;-68
2022/09/03 08:41:44;;;;;;;3.20;1.92;;;;;;;;;;5096230;28;20032;-68
2022/09/03 08:44:30;;;;;;;;;;;;;;;;;;5096364;27;20050;-68
2022/09/03 08:47:20;;;;;;;3.22;1.90;;;;;;;;;;5102559;28;20011;-68
2022/09/03 08:49:51;;;;;;;1.95;1.80;;;;;;;;;;5099617;28;20052;-67
2022/09/03 08:52:16;;;;;;;;;;;;;;;;;;5097470;27;20040;-68
2022/09/03 08:54:42;;;;;;;3.33;1.52;;;;;;;;;;5102122;27;20356;-69
2022/09/03 08:57:08;;;;;;;1.50;1.40;;;;;;;;;;5098410;27;20066;-70
2022/09/03 08:59:34;;;;;;;3.47;1.63;;;;;;;;;;5105235;27;20438;-68
2022/09/03 09:02:38;;;;;;;1.77;1.67;;;;;;;;;;5102550;28;20051;-70
2022/09/03 09:05:20;;;;;;;1.95;1.40;;;;;;;;;;5064844;27;20058;-70
2022/09/03 09:07:52;;;;;;;1.40;1.30;;;;;;;;;;5096715;28;20050;-69
2022/09/03 09:10:44;;;;;;;1.75;1.65;;;;;;;;;;5100833;27;20123;-69
2022/09/03 09:13:27;;;;;;;1.50;1.40;;;;;;;;;;5099205;27;20061;-69
2022/09/03 09:16:14;;;;;;;2.55;1.40;;;;;;;;;;5100327;27;20480;-70
2022/09/03 09:19:10;;;;;;;1.27;1.17;;;;;;;;;;5090247;28;20552;-69
2022/09/03 09:21:51;;;;;;;1.88;1.40;;;;;;;;;;5095166;28;20054;-70
2022/09/03 09:24:32;;;;;;;;;;;;;;;;;;5110344;27;20059;-68
2022/09/03 09:26:59;;;;;;;1.40;1.30;;;;;;;;;;5109065;28;19920;-69
2022/09/03 09:29:31;;;;;;;1.30;1.20;;;;;;;;;;5104182;27;20040;-69
2022/09/03 09:31:56;;;;;;;4.65;1.27;;;;;;;;;;5100919;27;20700;-69
2022/09/03 09:34:22;;;;;;;1.80;1.15;;;;;;;;;;5102856;27;20063;-69
2022/09/03 09:36:50;;;;;;;2.10;1.33;;;;;;;;;;5095103;28;20197;-69
2022/09/03 09:39:16;;;;;;;1.85;1.30;;;;;;;;;;5088974;28;20050;-68
2022/09/03 09:41:43;;;;;;;1.50;1.40;;;;;;;;;;5094099;28;20047;-69
2022/09/03 09:44:18;;;;;;;2.95;1.45;;;;;;;;;;5109658;27;20047;-70
2022/09/03 09:46:44;;;;;;;1.25;1.17;;;;;;;;;;5110284;28;20051;-69
2022/09/03 09:49:21;;;;;;;1.50;1.40;;;;;;;;;;5102863;27;20093;-69
2022/09/03 09:51:47;;;;;;;3.40;1.45;;;;;;;;;;5106224;28;20054;-70
2022/09/03 09:54:18;;;;;;;1.73;1.30;;;;;;;;;;5103417;28;20051;-68
2022/09/03 09:56:46;;;;;;;1.20;1.20;;;;;;;;;;5098231;27;20134;-68
2022/09/03 09:59:14;;;;;;;1.98;1.60;;;;;;;;;;5098229;27;20036;-70
2022/09/03 10:01:43;;;;;;;1.65;1.27;;;;;;;;;;5098909;28;20159;-69
2022/09/03 10:04:29;;;;;;;2.38;1.33;;;;;;;;;;5099162;28;20035;-71
2022/09/03 10:07:00;;;;;;;2.33;1.30;;;;;;;;;;5099175;28;20048;-69
2022/09/03 10:09:29;;;;;;;1.45;1.35;;;;;;;;;;5096912;28;20055;-69
2022/09/03 10:12:27;;;;;;;1.80;1.40;;;;;;;;;;5097057;28;20052;-69
2022/09/03 10:14:59;;;;;;;3.92;1.88;;;;;;;;;;5103736;28;20104;-68
2022/09/03 10:17:40;;;;;;;1.27;1.17;;;;;;;;;;5102223;27;20126;-69
2022/09/03 10:20:30;;;;;;;1.43;1.33;;;;;;;;;;5098687;27;20047;-71
2022/09/03 10:23:21;;;;;;;1.00;1.00;;;;;;;;;;5098352;28;20290;-69
2022/09/03 10:26:08;;;;;;;1.00;1.00;;;;;;;;;;5096315;28;20451;-69
2022/09/03 10:28:40;;;;;;;1.10;1.00;;;;;;;;;;5102501;27;20302;-69
2022/09/03 10:31:05;;;;;;;;;;;;;;;;;;5097849;27;20548;-69
2022/09/03 10:33:43;;;;;;;1.70;1.10;;;;;;;;;;5102874;27;19920;-70
2022/09/03 10:36:50;;;;;;;1.30;1.20;;;;;;;;;;5095039;28;20036;-71
2022/09/03 10:39:39;;;;;;;3.58;1.10;;;;;;;;;;5095065;27;20043;-69
2022/09/03 10:42:22;;;;;;;1.95;1.20;;;;;;;;;;5098438;28;20374;-70
2022/09/03 10:45:06;;;;;;;2.17;0.98;;;;;;;;;;5099821;28;20383;-69
2022/09/03 10:47:50;;;;;;;1.25;1.08;;;;;;;;;;5092074;27;20492;-69
2022/09/03 10:50:32;;;;;;;3.63;1.50;;;;;;;;;;5104905;27;20097;-68
2022/09/03 10:53:15;;;;;;;1.70;1.50;;;;;;;;;;5105933;28;20061;-68
2022/09/03 10:55:50;;;;;;;1.50;1.40;;;;;;;;;;5084262;28;20048;-69
2022/09/03 10:58:53;;;;;;;3.30;1.23;;;;;;;;;;5101417;27;20124;-68
2022/09/03 11:01:45;;;;;;;1.38;1.02;;;;;;;;;;5091651;28;20044;-69
2022/09/03 11:04:25;;;;;;;1.27;1.17;;;;;;;;;;5093371;27;20040;-68
2022/09/03 11:07:00;;;;;;;2.50;1.30;;;;;;;;;;5099028;27;20047;-68
2022/09/03 11:09:37;;;;;;;1.98;1.33;;;;;;;;;;5092242;27;20055;-68
2022/09/03 11:12:08;;;;;;;1.30;1.20;;;;;;;;;;5106052;27;20062;-68
2022/09/03 11:14:45;;;;;;;1.30;1.13;;;;;;;;;;5107103;27;20047;-69
2022/09/03 11:17:19;;;;;;;1.48;1.23;;;;;;;;;;5105457;27;20043;-67
2022/09/03 11:19:52;;;;;;;2.03;1.50;;;;;;;;;;5107648;28;20139;-67
2022/09/03 11:22:19;;;;;;;1.40;1.30;;;;;;;;;;5107540;27;20119;-67
2022/09/03 11:24:53;;;;;;;1.23;1.13;;;;;;;;;;5114751;27;20055;-67
2022/09/03 11:27:35;;;;;;;3.50;1.20;;;;;;;;;;5109172;27;20488;-69
2022/09/03 11:30:06;;;;;;;1.70;1.20;;;;;;;;;;5107213;28;20431;-70
2022/09/03 11:32:47;;;;;;;2.00;1.35;;;;;;;;;;5098735;27;20104;-69
2022/09/03 11:35:43;;;;;;;1.20;1.10;;;;;;;;;;5107531;27;20043;-70
2022/09/03 11:38:15;;;;;;;2.30;1.33;;;;;;;;;;5107606;27;20127;-71
2022/09/03 11:41:14;;;;;;;1.42;1.20;;;;;;;;;;5109004;27;20054;-72
2022/09/03 11:43:41;;;;;;;1.70;1.25;;;;;;;;;;5097284;28;20054;-70
2022/09/03 11:46:21;;;;;;;1.10;1.10;;;;;;;;;;5109478;28;20657;-70
2022/09/03 11:48:48;;;;;;;1.60;1.20;;;;;;;;;;5110067;27;20146;-71
2022/09/03 11:51:34;;;;;;;1.83;1.30;;;;;;;;;;5108979;28;20454;-70
2022/09/03 11:54:24;;;;;;;3.90;1.40;;;;;;;;;;5108885;27;20043;-70
2022/09/03 11:56:50;;;;;;;1.45;1.25;;;;;;;;;;5109687;27;20050;-70
2022/09/03 11:59:19;;;;;;;1.00;1.00;;;;;;;;;;5109310;27;20050;-70
2022/09/03 12:02:10;;;;;;;1.80;1.30;;;;;;;;;;5109695;28;20105;-70
2022/09/03 12:04:45;;;;;;;1.20;1.10;;;;;;;;;;5109169;28;20085;-72
2022/09/03 12:07:29;;;;;;;1.77;1.27;;;;;;;;;;5107564;27;20754;-69
2022/09/03 12:10:19;;;;;;;1.40;1.30;;;;;;;;;;5109632;27;20062;-69
2022/09/03 12:12:45;;;;;;;1.30;1.20;;;;;;;;;;5109698;27;20062;-70
2022/09/03 12:15:29;;;;;;;1.60;1.20;;;;;;;;;;5108301;27;20503;-71
2022/09/03 12:20:42;;;;;;;1.67;1.30;;;;;;;;;;5109906;27;20051;-70
2022/09/03 12:23:24;;;;;;;1.40;1.30;;;;;;;;;;5112851;27;20044;-70
2022/09/03 12:25:51;;;;;;;1.30;1.20;;;;;;;;;;5113461;27;20066;-71
2022/09/03 12:28:22;;;;;;;1.50;1.40;;;;;;;;;;5112706;27;20032;-71
2022/09/03 12:30:52;;;;;;;1.83;1.40;;;;;;;;;;5112938;27;20043;-69
2022/09/03 12:33:22;;;;;;;3.13;1.40;;;;;;;;;;5112823;27;20051;-69
2022/09/03 12:35:59;;;;;;;1.95;1.40;;;;;;;;;;5113240;27;20055;-69
2022/09/03 12:38:25;;;;;;;1.70;1.50;;;;;;;;;;5109912;28;20044;-72
2022/09/03 12:40:51;;;;;;;1.30;1.20;;;;;;;;;;5111323;27;20055;-73
2022/09/03 12:43:17;;;;;;;4.05;1.55;;;;;;;;;;5110212;27;20036;-71
2022/09/03 12:45:45;;;;;;;1.13;1.13;;;;;;;;;;5105368;27;20058;-72
2022/09/03 12:48:15;;;;;;;1.38;1.27;;;;;;;;;;5110727;27;20058;-70
2022/09/03 12:50:42;;;;;;;1.70;1.27;;;;;;;;;;5112510;27;20051;-70
2022/09/03 12:53:11;;;;;;;2.42;1.20;;;;;;;;;;5112067;27;20043;-69
2022/09/03 12:55:50;;;;;;;1.52;1.40;;;;;;;;;;5112729;27;20578;-70
2022/09/03 12:58:30;;;;;;;1.50;1.40;;;;;;;;;;5112911;27;20044;-70
2022/09/03 13:00:57;;;;;;;1.48;1.38;;;;;;;;;;5111557;27;20542;-70
2022/09/03 13:03:29;;;;;;;3.90;1.45;;;;;;;;;;5112170;27;20047;-70
2022/09/03 13:06:02;;;;;;;1.20;1.20;;;;;;;;;;5112808;27;20051;-68
2022/09/03 13:08:31;;;;;;;1.55;1.45;;;;;;;;;;5112661;27;20050;-70
2022/09/03 13:11:03;;;;;;;1.40;1.30;;;;;;;;;;5105500;27;20044;-69
2022/09/03 13:13:31;;;;;;;1.50;1.40;;;;;;;;;;5111751;27;20555;-69
2022/09/03 13:16:34;;;;;;;1.58;1.48;;;;;;;;;;5112318;28;20384;-68
2022/09/03 13:19:12;;;;;;;1.48;1.38;;;;;;;;;;5112415;27;20049;-70
2022/09/03 13:22:05;;;;;;;2.08;1.25;;;;;;;;;;5110967;27;20099;-70
2022/09/03 13:24:42;;;;;;;1.38;1.27;;;;;;;;;;5105463;27;20078;-69
2022/09/03 13:27:32;;;;;;;1.40;1.30;;;;;;;;;;5110369;27;20128;-69
2022/09/03 13:30:10;;;;;;;1.35;1.25;;;;;;;;;;5112285;27;20142;-69
2022/09/03 13:33:04;;;;;;;1.60;1.50;;;;;;;;;;5094426;28;20096;-69
2022/09/03 13:35:52;;;;;;;1.30;1.20;;;;;;;;;;5104573;27;20062;-68
2022/09/03 13:38:27;;;;;;;1.45;1.35;;;;;;;;;;5110752;28;20047;-69
2022/09/03 13:40:56;;;;;;;1.52;1.13;;;;;;;;;;5111736;27;20102;-71
2022/09/03 13:43:24;;;;;;;1.48;1.30;;;;;;;;;;5110737;27;20567;-69
2022/09/03 13:45:57;;;;;;;2.55;1.30;;;;;;;;;;5111715;28;20047;-70
2022/09/03 13:51:30;;;;;;;1.77;1.40;;;;;;;;;;5090523;28;20044;-69
2022/09/03 13:54:08;;;;;;;1.70;1.60;;;;;;;;;;5091366;28;20056;-68
2022/09/03 13:56:53;;;;;;;1.63;1.52;;;;;;;;;;5111353;27;20535;-68
2022/09/03 13:59:27;;;;;;;3.67;1.50;;;;;;;;;;5110903;27;20126;-68
2022/09/03 14:02:14;;;;;;;1.30;1.20;;;;;;;;;;5111304;28;20058;-68
2022/09/03 14:05:01;;;;;;;1.40;1.30;;;;;;;;;;5111629;28;20112;-69
2022/09/03 14:07:34;;;;;;;1.52;1.42;;;;;;;;;;5109979;27;20492;-70
2022/09/03 14:10:08;;;;;;;1.40;1.25;;;;;;;;;;5111269;27;20055;-70
2022/09/03 14:12:48;;;;;;;3.17;1.65;;;;;;;;;;5111142;27;20054;-70
2022/09/03 14:15:29;;;;;;;1.40;1.27;;;;;;;;;;5110642;27;20044;-70
2022/09/03 14:18:27;;;;;;;3.20;1.80;;;;;;;;;;5110201;27;20048;-69
2022/09/03 14:21:00;;;;;;;3.38;1.60;;;;;;;;;;5111070;27;20047;-71
2022/09/03 14:23:47;;;;;;;3.97;1.50;;;;;;;;;;5110636;27;20047;-71
2022/09/03 14:26:20;;;;;;;1.60;1.50;;;;;;;;;;5111168;27;20044;-70
2022/09/03 14:28:56;;;;;;;1.60;1.50;;;;;;;;;;5110103;27;20044;-71
2022/09/03 14:31:53;;;;;;;1.67;1.58;;;;;;;;;;5102008;27;20047;-70
2022/09/03 14:34:29;;;;;;;1.85;1.75;;;;;;;;;;5111091;28;20099;-70
2022/09/03 14:37:04;;;;;;;3.20;2.42;;;;;;;;;;5109535;28;20463;-70
2022/09/03 14:39:53;;;;;;;2.38;1.85;;;;;;;;;;5114316;27;20055;-69
2022/09/03 14:43:10;;;;;;;2.50;1.58;;;;;;;;;;5117224;27;20480;-71
2022/09/03 14:45:48;;;;;;;3.03;1.52;;;;;;;;;;5017925;28;20053;-69
2022/09/03 14:48:42;;;;;;;2.78;1.65;;;;;;;;;;5090551;28;20078;-68
2022/09/03 14:51:40;;;;;;;1.40;1.27;;;;;;;;;;5088724;27;20485;-69
2022/09/03 14:54:15;;;;;;;3.45;1.60;;;;;;;;;;5112506;27;20126;-68
2022/09/03 14:56:46;;;;;;;1.80;1.60;;;;;;;;;;5110763;27;20275;-68
2022/09/03 14:59:18;;;;;;;2.30;1.80;;;;;;;;;;5110123;27;20036;-70
2022/09/03 15:02:09;;;;;;;2.42;1.70;;;;;;;;;;5109480;27;20047;-71
2022/09/03 15:04:49;;;;;;;4.82;2.20;;;;;;;;;;5110173;27;20686;-70
2022/09/03 15:07:29;;;;;;;1.52;1.38;;;;;;;;;;5108998;27;20050;-69
2022/09/03 15:10:26;;;;;;;5.32;0.93;;;;;;;;;;5106806;27;20035;-68
2022/09/03 15:12:56;;;;;;;3.42;0.85;;;;;;;;;;5108347;28;20089;-69
2022/09/03 15:15:42;;;;;;;10.20;1.10;;;;;;;;;;5099774;27;20085;-69
2022/09/03 15:18:29;;;;;;;8.75;1.73;;;;;;;;;;5083958;28;20044;-70
2022/09/03 15:21:24;;;;;;;5.68;1.67;;;;;;;;;;5091680;28;20136;-69
2022/09/03 15:23:54;;;;;;;5.13;1.50;;;;;;;;;;5095196;28;20046;-70
2022/09/03 15:26:38;;;;;;;14.18;1.80;;;;;;;;;;5097987;27;20047;-70